sensor_id;sensor_type;location;lat;lon;timestamp;P1;durP1;ratioP1;P2;durP2;ratioP2
75156;SDS011;63736;50.076;8.198;2023-05-10T00:01:23;1398.40;;;489.60;;
75156;SDS011;63736;50.076;8.198;2023-05-10T00:03:48;1389.73;;;483.80;;
75156;SDS011;63736;50.076;8.198;2023-05-10T00:06:14;1397.00;;;485.87;;
75156;SDS011;63736;50.076;8.198;2023-05-10T00:08:39;1388.20;;;483.37;;
75156;SDS011;63736;50.076;8.198;2023-05-10T00:11:04;1391.57;;;483.47;;
75156;SDS011;63736;50.076;8.198;2023-05-10T00:13:30;1388.00;;;481.73;;
75156;SDS011;63736;50.076;8.198;2023-05-10T00:15:56;1396.88;;;483.00;;
75156;SDS011;63736;50.076;8.198;2023-05-10T00:18:21;1378.40;;;479.97;;
75156;SDS011;63736;50.076;8.198;2023-05-10T00:20:46;1375.77;;;484.60;;
75156;SDS011;63736;50.076;8.198;2023-05-10T00:23:12;1372.83;;;485.43;;
75156;SDS011;63736;50.076;8.198;2023-05-10T00:25:37;1374.00;;;487.67;;
75156;SDS011;63736;50.076;8.198;2023-05-10T00:28:02;1360.13;;;483.50;;
75156;SDS011;63736;50.076;8.198;2023-05-10T00:30:28;1349.70;;;482.37;;
75156;SDS011;63736;50.076;8.198;2023-05-10T00:32:53;1346.67;;;481.27;;
75156;SDS011;63736;50.076;8.198;2023-05-10T00:35:18;1345.40;;;483.93;;
75156;SDS011;63736;50.076;8.198;2023-05-10T00:37:44;1341.80;;;481.47;;
75156;SDS011;63736;50.076;8.198;2023-05-10T00:40:10;1325.45;;;472.13;;
75156;SDS011;63736;50.076;8.198;2023-05-10T00:42:35;1332.70;;;475.58;;
75156;SDS011;63736;50.076;8.198;2023-05-10T00:45:01;1326.20;;;470.13;;
75156;SDS011;63736;50.076;8.198;2023-05-10T00:47:26;1326.63;;;470.10;;
75156;SDS011;63736;50.076;8.198;2023-05-10T00:49:52;1347.80;;;479.42;;
75156;SDS011;63736;50.076;8.198;2023-05-10T00:52:17;1339.87;;;473.87;;
75156;SDS011;63736;50.076;8.198;2023-05-10T00:54:43;1346.87;;;474.97;;
75156;SDS011;63736;50.076;8.198;2023-05-10T00:57:08;1343.15;;;472.95;;
75156;SDS011;63736;50.076;8.198;2023-05-10T00:59:34;1345.13;;;474.67;;
75156;SDS011;63736;50.076;8.198;2023-05-10T01:01:59;1349.10;;;474.40;;
75156;SDS011;63736;50.076;8.198;2023-05-10T01:04:25;1351.80;;;477.83;;
75156;SDS011;63736;50.076;8.198;2023-05-10T01:06:51;1350.07;;;479.37;;
75156;SDS011;63736;50.076;8.198;2023-05-10T01:09:17;1343.60;;;474.97;;
75156;SDS011;63736;50.076;8.198;2023-05-10T01:11:43;1340.68;;;477.67;;
75156;SDS011;63736;50.076;8.198;2023-05-10T01:14:08;1333.50;;;474.97;;
75156;SDS011;63736;50.076;8.198;2023-05-10T01:16:36;1341.10;;;478.55;;
75156;SDS011;63736;50.076;8.198;2023-05-10T01:19:04;1334.00;;;475.10;;
75156;SDS011;63736;50.076;8.198;2023-05-10T01:27:09;1327.30;;;472.17;;
75156;SDS011;63736;50.076;8.198;2023-05-10T01:32:32;1324.38;;;474.65;;
75156;SDS011;63736;50.076;8.198;2023-05-10T01:35:50;1330.35;;;479.88;;
75156;SDS011;63736;50.076;8.198;2023-05-10T01:38:04;1311.37;;;469.63;;
75156;SDS011;63736;50.076;8.198;2023-05-10T01:41:03;1315.97;;;473.73;;
75156;SDS011;63736;50.076;8.198;2023-05-10T01:43:48;1321.47;;;477.55;;
75156;SDS011;63736;50.076;8.198;2023-05-10T01:46:24;1315.78;;;474.30;;
75156;SDS011;63736;50.076;8.198;2023-05-10T01:48:59;1303.85;;;466.45;;
75156;SDS011;63736;50.076;8.198;2023-05-10T01:51:27;1315.70;;;477.33;;
75156;SDS011;63736;50.076;8.198;2023-05-10T01:54:02;1302.03;;;466.17;;
75156;SDS011;63736;50.076;8.198;2023-05-10T01:56:30;1308.30;;;470.58;;
75156;SDS011;63736;50.076;8.198;2023-05-10T01:58:58;1308.78;;;473.02;;
75156;SDS011;63736;50.076;8.198;2023-05-10T02:01:25;1307.55;;;469.83;;
75156;SDS011;63736;50.076;8.198;2023-05-10T02:03:52;1297.30;;;466.27;;
75156;SDS011;63736;50.076;8.198;2023-05-10T02:06:20;1317.75;;;477.85;;
75156;SDS011;63736;50.076;8.198;2023-05-10T02:08:49;1303.68;;;468.45;;
75156;SDS011;63736;50.076;8.198;2023-05-10T02:11:16;1304.93;;;471.25;;
75156;SDS011;63736;50.076;8.198;2023-05-10T02:13:43;1296.93;;;466.88;;
75156;SDS011;63736;50.076;8.198;2023-05-10T02:16:12;1290.90;;;463.20;;
75156;SDS011;63736;50.076;8.198;2023-05-10T02:18:38;1291.20;;;461.55;;
75156;SDS011;63736;50.076;8.198;2023-05-10T02:21:05;1301.57;;;469.90;;
75156;SDS011;63736;50.076;8.198;2023-05-10T02:23:32;1301.07;;;471.63;;
75156;SDS011;63736;50.076;8.198;2023-05-10T02:26:00;1294.93;;;468.02;;
75156;SDS011;63736;50.076;8.198;2023-05-10T02:28:27;1298.23;;;469.23;;
75156;SDS011;63736;50.076;8.198;2023-05-10T02:30:53;1300.60;;;469.60;;
75156;SDS011;63736;50.076;8.198;2023-05-10T02:33:20;1306.35;;;474.98;;
75156;SDS011;63736;50.076;8.198;2023-05-10T02:35:47;1298.05;;;466.75;;
75156;SDS011;63736;50.076;8.198;2023-05-10T02:38:14;1299.93;;;471.70;;
75156;SDS011;63736;50.076;8.198;2023-05-10T02:40:40;1295.33;;;468.67;;
75156;SDS011;63736;50.076;8.198;2023-05-10T02:43:07;1287.15;;;462.60;;
75156;SDS011;63736;50.076;8.198;2023-05-10T02:45:37;1293.03;;;464.55;;
75156;SDS011;63736;50.076;8.198;2023-05-10T02:48:03;1293.75;;;468.73;;
75156;SDS011;63736;50.076;8.198;2023-05-10T02:50:29;1295.33;;;470.43;;
75156;SDS011;63736;50.076;8.198;2023-05-10T02:52:59;1297.88;;;473.58;;
75156;SDS011;63736;50.076;8.198;2023-05-10T02:55:37;1293.30;;;467.25;;
75156;SDS011;63736;50.076;8.198;2023-05-10T02:58:05;1291.20;;;469.67;;
75156;SDS011;63736;50.076;8.198;2023-05-10T03:00:30;1290.70;;;467.87;;
75156;SDS011;63736;50.076;8.198;2023-05-10T03:02:56;1291.32;;;468.05;;
75156;SDS011;63736;50.076;8.198;2023-05-10T03:05:21;1281.73;;;464.97;;
75156;SDS011;63736;50.076;8.198;2023-05-10T03:07:47;1285.87;;;469.60;;
75156;SDS011;63736;50.076;8.198;2023-05-10T03:10:13;1282.05;;;464.63;;
75156;SDS011;63736;50.076;8.198;2023-05-10T03:17:55;1282.72;;;468.50;;
75156;SDS011;63736;50.076;8.198;2023-05-10T03:20:31;1281.47;;;467.50;;
75156;SDS011;63736;50.076;8.198;2023-05-10T03:25:42;1282.97;;;466.35;;
75156;SDS011;63736;50.076;8.198;2023-05-10T03:28:08;1281.57;;;467.50;;
75156;SDS011;63736;50.076;8.198;2023-05-10T03:30:34;1281.40;;;468.07;;
75156;SDS011;63736;50.076;8.198;2023-05-10T03:33:07;1278.30;;;464.80;;
75156;SDS011;63736;50.076;8.198;2023-05-10T03:35:33;1280.05;;;467.05;;
75156;SDS011;63736;50.076;8.198;2023-05-10T03:37:58;1276.03;;;462.63;;
75156;SDS011;63736;50.076;8.198;2023-05-10T03:40:24;1281.93;;;465.87;;
75156;SDS011;63736;50.076;8.198;2023-05-10T03:42:50;1277.17;;;464.17;;
75156;SDS011;63736;50.076;8.198;2023-05-10T03:45:16;1279.93;;;464.83;;
75156;SDS011;63736;50.076;8.198;2023-05-10T03:47:41;1285.65;;;470.48;;
75156;SDS011;63736;50.076;8.198;2023-05-10T03:50:06;1283.80;;;467.03;;
75156;SDS011;63736;50.076;8.198;2023-05-10T03:52:32;1272.33;;;462.50;;
75156;SDS011;63736;50.076;8.198;2023-05-10T03:54:57;1277.33;;;462.07;;
75156;SDS011;63736;50.076;8.198;2023-05-10T03:57:23;1280.57;;;465.37;;
75156;SDS011;63736;50.076;8.198;2023-05-10T03:59:48;1282.97;;;469.77;;
75156;SDS011;63736;50.076;8.198;2023-05-10T04:02:13;1277.33;;;462.40;;
75156;SDS011;63736;50.076;8.198;2023-05-10T04:04:38;1286.03;;;471.57;;
75156;SDS011;63736;50.076;8.198;2023-05-10T04:07:04;1283.10;;;468.30;;
75156;SDS011;63736;50.076;8.198;2023-05-10T04:09:29;1282.87;;;467.27;;
75156;SDS011;63736;50.076;8.198;2023-05-10T04:11:54;1291.40;;;472.37;;
75156;SDS011;63736;50.076;8.198;2023-05-10T04:14:20;1280.57;;;465.13;;
75156;SDS011;63736;50.076;8.198;2023-05-10T04:16:45;1288.32;;;470.50;;
75156;SDS011;63736;50.076;8.198;2023-05-10T04:19:11;1286.97;;;470.60;;
75156;SDS011;63736;50.076;8.198;2023-05-10T04:21:36;1280.30;;;465.43;;
75156;SDS011;63736;50.076;8.198;2023-05-10T04:24:01;1291.27;;;473.73;;
75156;SDS011;63736;50.076;8.198;2023-05-10T04:26:27;1290.03;;;471.03;;
75156;SDS011;63736;50.076;8.198;2023-05-10T04:28:52;1280.30;;;465.00;;
75156;SDS011;63736;50.076;8.198;2023-05-10T04:31:17;1277.90;;;465.27;;
75156;SDS011;63736;50.076;8.198;2023-05-10T04:33:43;1288.40;;;473.33;;
75156;SDS011;63736;50.076;8.198;2023-05-10T04:36:08;1286.23;;;468.30;;
75156;SDS011;63736;50.076;8.198;2023-05-10T04:38:33;1283.63;;;466.60;;
75156;SDS011;63736;50.076;8.198;2023-05-10T04:41:05;1292.00;;;471.73;;
75156;SDS011;63736;50.076;8.198;2023-05-10T04:43:35;1287.63;;;472.27;;
75156;SDS011;63736;50.076;8.198;2023-05-10T04:46:01;1289.57;;;469.85;;
75156;SDS011;63736;50.076;8.198;2023-05-10T04:48:27;1286.88;;;467.88;;
75156;SDS011;63736;50.076;8.198;2023-05-10T04:50:52;1292.20;;;471.30;;
75156;SDS011;63736;50.076;8.198;2023-05-10T04:53:17;1294.07;;;472.80;;
75156;SDS011;63736;50.076;8.198;2023-05-10T04:55:43;1297.03;;;475.97;;
75156;SDS011;63736;50.076;8.198;2023-05-10T04:58:08;1295.77;;;469.80;;
75156;SDS011;63736;50.076;8.198;2023-05-10T05:00:33;1293.23;;;470.47;;
75156;SDS011;63736;50.076;8.198;2023-05-10T05:02:59;1295.90;;;474.08;;
75156;SDS011;63736;50.076;8.198;2023-05-10T05:05:24;1289.40;;;471.17;;
75156;SDS011;63736;50.076;8.198;2023-05-10T05:07:50;1290.40;;;474.90;;
75156;SDS011;63736;50.076;8.198;2023-05-10T05:10:15;1287.55;;;467.63;;
75156;SDS011;63736;50.076;8.198;2023-05-10T05:12:40;1288.33;;;470.10;;
75156;SDS011;63736;50.076;8.198;2023-05-10T05:15:06;1284.70;;;467.13;;
75156;SDS011;63736;50.076;8.198;2023-05-10T05:17:34;1286.30;;;469.88;;
75156;SDS011;63736;50.076;8.198;2023-05-10T05:19:59;1290.40;;;471.83;;
75156;SDS011;63736;50.076;8.198;2023-05-10T05:22:24;1292.90;;;472.30;;
75156;SDS011;63736;50.076;8.198;2023-05-10T05:24:56;1290.13;;;471.10;;
75156;SDS011;63736;50.076;8.198;2023-05-10T05:27:23;1286.40;;;469.33;;
75156;SDS011;63736;50.076;8.198;2023-05-10T05:29:52;1293.47;;;475.77;;
75156;SDS011;63736;50.076;8.198;2023-05-10T05:32:20;1284.05;;;464.88;;
75156;SDS011;63736;50.076;8.198;2023-05-10T05:34:46;1293.60;;;467.77;;
75156;SDS011;63736;50.076;8.198;2023-05-10T05:37:13;1298.17;;;470.70;;
75156;SDS011;63736;50.076;8.198;2023-05-10T05:39:42;1301.53;;;466.50;;
75156;SDS011;63736;50.076;8.198;2023-05-10T05:42:08;1313.80;;;467.38;;
75156;SDS011;63736;50.076;8.198;2023-05-10T05:44:34;1321.15;;;471.92;;
75156;SDS011;63736;50.076;8.198;2023-05-10T05:46:59;1324.87;;;473.53;;
75156;SDS011;63736;50.076;8.198;2023-05-10T05:49:25;1337.70;;;476.17;;
75156;SDS011;63736;50.076;8.198;2023-05-10T05:51:50;1350.97;;;478.90;;
75156;SDS011;63736;50.076;8.198;2023-05-10T05:54:15;1329.53;;;467.97;;
75156;SDS011;63736;50.076;8.198;2023-05-10T05:56:41;1368.50;;;482.37;;
75156;SDS011;63736;50.076;8.198;2023-05-10T05:59:06;1456.43;;;508.03;;
75156;SDS011;63736;50.076;8.198;2023-05-10T06:01:31;1443.67;;;494.40;;
75156;SDS011;63736;50.076;8.198;2023-05-10T06:03:56;1527.43;;;506.43;;
75156;SDS011;63736;50.076;8.198;2023-05-10T06:06:22;1538.83;;;508.13;;
75156;SDS011;63736;50.076;8.198;2023-05-10T06:08:47;1505.30;;;490.80;;
75156;SDS011;63736;50.076;8.198;2023-05-10T06:11:12;1504.90;;;491.07;;
75156;SDS011;63736;50.076;8.198;2023-05-10T06:13:37;1516.13;;;491.87;;
75156;SDS011;63736;50.076;8.198;2023-05-10T06:16:03;1517.60;;;490.47;;
75156;SDS011;63736;50.076;8.198;2023-05-10T06:18:28;1522.93;;;490.70;;
75156;SDS011;63736;50.076;8.198;2023-05-10T06:20:53;1518.70;;;487.83;;
75156;SDS011;63736;50.076;8.198;2023-05-10T06:23:19;1535.87;;;495.57;;
75156;SDS011;63736;50.076;8.198;2023-05-10T06:25:44;1534.33;;;493.27;;
75156;SDS011;63736;50.076;8.198;2023-05-10T06:28:09;1533.60;;;491.17;;
75156;SDS011;63736;50.076;8.198;2023-05-10T06:30:35;1531.27;;;493.37;;
75156;SDS011;63736;50.076;8.198;2023-05-10T06:33:01;1625.95;;;515.35;;
75156;SDS011;63736;50.076;8.198;2023-05-10T06:35:27;1648.77;;;536.43;;
75156;SDS011;63736;50.076;8.198;2023-05-10T06:37:53;1577.30;;;512.85;;
75156;SDS011;63736;50.076;8.198;2023-05-10T06:40:18;1545.70;;;504.53;;
75156;SDS011;63736;50.076;8.198;2023-05-10T06:42:44;1529.93;;;498.80;;
75156;SDS011;63736;50.076;8.198;2023-05-10T06:45:10;1506.55;;;490.05;;
75156;SDS011;63736;50.076;8.198;2023-05-10T06:47:36;1499.97;;;489.87;;
75156;SDS011;63736;50.076;8.198;2023-05-10T06:50:01;1502.23;;;496.07;;
75156;SDS011;63736;50.076;8.198;2023-05-10T06:52:26;1505.97;;;491.57;;
75156;SDS011;63736;50.076;8.198;2023-05-10T06:54:52;1514.20;;;493.63;;
75156;SDS011;63736;50.076;8.198;2023-05-10T06:57:17;1533.23;;;492.30;;
75156;SDS011;63736;50.076;8.198;2023-05-10T06:59:43;1605.68;;;520.83;;
75156;SDS011;63736;50.076;8.198;2023-05-10T07:02:08;1656.97;;;525.07;;
75156;SDS011;63736;50.076;8.198;2023-05-10T07:04:33;1662.83;;;525.27;;
75156;SDS011;63736;50.076;8.198;2023-05-10T07:06:59;1674.47;;;526.97;;
75156;SDS011;63736;50.076;8.198;2023-05-10T07:09:24;1679.97;;;524.22;;
75156;SDS011;63736;50.076;8.198;2023-05-10T07:11:49;1764.27;;;553.93;;
75156;SDS011;63736;50.076;8.198;2023-05-10T07:14:15;1673.07;;;515.83;;
75156;SDS011;63736;50.076;8.198;2023-05-10T07:16:40;1660.37;;;524.53;;
75156;SDS011;63736;50.076;8.198;2023-05-10T07:19:05;1641.43;;;520.83;;
75156;SDS011;63736;50.076;8.198;2023-05-10T07:21:31;1608.03;;;508.37;;
75156;SDS011;63736;50.076;8.198;2023-05-10T07:23:57;1589.57;;;498.70;;
75156;SDS011;63736;50.076;8.198;2023-05-10T07:26:22;1583.57;;;499.70;;
75156;SDS011;63736;50.076;8.198;2023-05-10T07:28:47;1578.30;;;497.07;;
75156;SDS011;63736;50.076;8.198;2023-05-10T07:31:13;1589.73;;;495.17;;
75156;SDS011;63736;50.076;8.198;2023-05-10T07:33:38;1655.30;;;524.17;;
75156;SDS011;63736;50.076;8.198;2023-05-10T07:36:03;1668.10;;;519.83;;
75156;SDS011;63736;50.076;8.198;2023-05-10T07:38:29;1653.80;;;519.47;;
75156;SDS011;63736;50.076;8.198;2023-05-10T07:40:54;1644.93;;;518.40;;
75156;SDS011;63736;50.076;8.198;2023-05-10T07:43:19;1757.70;;;557.40;;
75156;SDS011;63736;50.076;8.198;2023-05-10T07:45:45;1682.07;;;548.50;;
75156;SDS011;63736;50.076;8.198;2023-05-10T07:48:10;1661.30;;;529.65;;
75156;SDS011;63736;50.076;8.198;2023-05-10T07:50:35;1608.70;;;516.17;;
75156;SDS011;63736;50.076;8.198;2023-05-10T07:53:00;1656.90;;;524.43;;
75156;SDS011;63736;50.076;8.198;2023-05-10T07:55:26;1594.47;;;509.70;;
75156;SDS011;63736;50.076;8.198;2023-05-10T07:57:51;1542.47;;;496.03;;
75156;SDS011;63736;50.076;8.198;2023-05-10T08:00:17;1523.53;;;485.50;;
75156;SDS011;63736;50.076;8.198;2023-05-10T08:02:44;1529.35;;;492.98;;
75156;SDS011;63736;50.076;8.198;2023-05-10T08:05:09;1538.70;;;501.70;;
75156;SDS011;63736;50.076;8.198;2023-05-10T08:07:35;1528.63;;;501.15;;
75156;SDS011;63736;50.076;8.198;2023-05-10T08:10:01;1551.07;;;504.60;;
75156;SDS011;63736;50.076;8.198;2023-05-10T08:12:27;1522.03;;;498.45;;
75156;SDS011;63736;50.076;8.198;2023-05-10T08:14:53;1514.13;;;497.43;;
75156;SDS011;63736;50.076;8.198;2023-05-10T08:17:18;1506.77;;;491.40;;
75156;SDS011;63736;50.076;8.198;2023-05-10T08:19:43;1507.70;;;495.50;;
75156;SDS011;63736;50.076;8.198;2023-05-10T08:22:08;1500.63;;;491.40;;
75156;SDS011;63736;50.076;8.198;2023-05-10T08:24:34;1510.17;;;498.20;;
75156;SDS011;63736;50.076;8.198;2023-05-10T08:27:03;1498.27;;;492.43;;
75156;SDS011;63736;50.076;8.198;2023-05-10T08:29:28;1511.97;;;498.52;;
75156;SDS011;63736;50.076;8.198;2023-05-10T08:31:54;1509.47;;;495.03;;
75156;SDS011;63736;50.076;8.198;2023-05-10T08:34:19;1515.45;;;498.27;;
75156;SDS011;63736;50.076;8.198;2023-05-10T08:36:45;1513.33;;;496.67;;
75156;SDS011;63736;50.076;8.198;2023-05-10T08:39:10;1518.30;;;498.37;;
75156;SDS011;63736;50.076;8.198;2023-05-10T08:41:35;1520.20;;;498.90;;
75156;SDS011;63736;50.076;8.198;2023-05-10T08:44:04;1526.65;;;499.00;;
75156;SDS011;63736;50.076;8.198;2023-05-10T08:46:30;1562.72;;;509.30;;
75156;SDS011;63736;50.076;8.198;2023-05-10T08:49:00;1523.23;;;497.57;;
75156;SDS011;63736;50.076;8.198;2023-05-10T08:51:29;1531.28;;;498.85;;
75156;SDS011;63736;50.076;8.198;2023-05-10T08:53:57;1530.07;;;496.58;;
75156;SDS011;63736;50.076;8.198;2023-05-10T08:56:23;1521.55;;;494.30;;
75156;SDS011;63736;50.076;8.198;2023-05-10T08:58:49;1522.67;;;499.53;;
75156;SDS011;63736;50.076;8.198;2023-05-10T09:01:15;1506.78;;;492.50;;
75156;SDS011;63736;50.076;8.198;2023-05-10T09:03:41;1509.45;;;497.08;;
75156;SDS011;63736;50.076;8.198;2023-05-10T09:06:07;1499.67;;;493.97;;
75156;SDS011;63736;50.076;8.198;2023-05-10T09:08:33;1497.03;;;491.10;;
75156;SDS011;63736;50.076;8.198;2023-05-10T09:10:59;1506.50;;;494.83;;
75156;SDS011;63736;50.076;8.198;2023-05-10T09:13:26;1533.97;;;497.88;;
75156;SDS011;63736;50.076;8.198;2023-05-10T09:15:52;1541.55;;;503.27;;
75156;SDS011;63736;50.076;8.198;2023-05-10T09:18:17;1549.70;;;509.67;;
75156;SDS011;63736;50.076;8.198;2023-05-10T09:20:43;1571.80;;;505.43;;
75156;SDS011;63736;50.076;8.198;2023-05-10T09:23:08;1613.10;;;520.57;;
75156;SDS011;63736;50.076;8.198;2023-05-10T09:25:34;1719.07;;;568.50;;
75156;SDS011;63736;50.076;8.198;2023-05-10T09:27:59;1827.50;;;620.33;;
75156;SDS011;63736;50.076;8.198;2023-05-10T09:30:25;1803.57;;;563.25;;
75156;SDS011;63736;50.076;8.198;2023-05-10T09:32:53;1837.80;;;566.63;;
75156;SDS011;63736;50.076;8.198;2023-05-10T09:35:20;1844.00;;;573.63;;
75156;SDS011;63736;50.076;8.198;2023-05-10T09:37:51;1818.55;;;561.20;;
75156;SDS011;63736;50.076;8.198;2023-05-10T09:40:19;1816.47;;;561.05;;
75156;SDS011;63736;50.076;8.198;2023-05-10T09:45:32;1764.47;;;559.58;;
75156;SDS011;63736;50.076;8.198;2023-05-10T09:47:59;1646.10;;;529.60;;
75156;SDS011;63736;50.076;8.198;2023-05-10T09:50:26;1673.60;;;530.95;;
75156;SDS011;63736;50.076;8.198;2023-05-10T09:52:53;1628.43;;;530.37;;
75156;SDS011;63736;50.076;8.198;2023-05-10T09:55:19;1578.87;;;513.20;;
75156;SDS011;63736;50.076;8.198;2023-05-10T09:57:47;1559.07;;;509.55;;
75156;SDS011;63736;50.076;8.198;2023-05-10T10:00:19;1553.30;;;510.73;;
75156;SDS011;63736;50.076;8.198;2023-05-10T10:02:46;1547.40;;;510.63;;
75156;SDS011;63736;50.076;8.198;2023-05-10T10:05:12;1549.47;;;510.80;;
75156;SDS011;63736;50.076;8.198;2023-05-10T10:07:38;1543.93;;;506.93;;
75156;SDS011;63736;50.076;8.198;2023-05-10T10:10:04;1552.35;;;511.50;;
75156;SDS011;63736;50.076;8.198;2023-05-10T10:12:30;1545.78;;;508.25;;
75156;SDS011;63736;50.076;8.198;2023-05-10T10:14:56;1544.17;;;507.13;;
75156;SDS011;63736;50.076;8.198;2023-05-10T10:17:22;1556.50;;;513.30;;
75156;SDS011;63736;50.076;8.198;2023-05-10T10:19:52;1561.80;;;513.67;;
75156;SDS011;63736;50.076;8.198;2023-05-10T10:22:17;1560.83;;;515.90;;
75156;SDS011;63736;50.076;8.198;2023-05-10T10:24:42;1560.70;;;513.37;;
75156;SDS011;63736;50.076;8.198;2023-05-10T10:27:14;1734.43;;;620.40;;
75156;SDS011;63736;50.076;8.198;2023-05-10T10:29:58;1825.40;;;765.58;;
75156;SDS011;63736;50.076;8.198;2023-05-10T10:35:07;1861.43;;;791.63;;
75156;SDS011;63736;50.076;8.198;2023-05-10T10:37:43;1873.37;;;792.23;;
75156;SDS011;63736;50.076;8.198;2023-05-10T10:40:23;1877.75;;;787.97;;
75156;SDS011;63736;50.076;8.198;2023-05-10T10:42:50;1872.95;;;779.28;;
75156;SDS011;63736;50.076;8.198;2023-05-10T10:45:16;1866.17;;;775.13;;
75156;SDS011;63736;50.076;8.198;2023-05-10T10:47:41;1876.10;;;770.97;;
75156;SDS011;63736;50.076;8.198;2023-05-10T10:50:08;1868.63;;;772.28;;
75156;SDS011;63736;50.076;8.198;2023-05-10T10:52:37;1873.40;;;762.70;;
75156;SDS011;63736;50.076;8.198;2023-05-10T10:55:05;1865.28;;;748.45;;
75156;SDS011;63736;50.076;8.198;2023-05-10T10:57:46;1861.95;;;742.33;;
75156;SDS011;63736;50.076;8.198;2023-05-10T11:00:24;1853.75;;;737.92;;
75156;SDS011;63736;50.076;8.198;2023-05-10T11:10:38;1845.30;;;722.40;;
75156;SDS011;63736;50.076;8.198;2023-05-10T11:13:10;1849.35;;;725.97;;
75156;SDS011;63736;50.076;8.198;2023-05-10T11:15:36;1849.53;;;725.55;;
75156;SDS011;63736;50.076;8.198;2023-05-10T11:18:20;1852.43;;;727.07;;
75156;SDS011;63736;50.076;8.198;2023-05-10T11:20:51;1839.13;;;713.50;;
75156;SDS011;63736;50.076;8.198;2023-05-10T11:23:17;1840.57;;;713.53;;
75156;SDS011;63736;50.076;8.198;2023-05-10T11:25:44;1841.65;;;716.40;;
75156;SDS011;63736;50.076;8.198;2023-05-10T11:28:11;1839.35;;;711.08;;
75156;SDS011;63736;50.076;8.198;2023-05-10T11:30:39;1830.67;;;704.23;;
75156;SDS011;63736;50.076;8.198;2023-05-10T11:33:06;1825.95;;;697.92;;
75156;SDS011;63736;50.076;8.198;2023-05-10T11:35:39;1837.22;;;698.78;;
75156;SDS011;63736;50.076;8.198;2023-05-10T11:38:09;1827.13;;;698.05;;
75156;SDS011;63736;50.076;8.198;2023-05-10T11:40:35;1824.18;;;695.05;;
75156;SDS011;63736;50.076;8.198;2023-05-10T11:43:02;1820.30;;;692.23;;
75156;SDS011;63736;50.076;8.198;2023-05-10T11:45:28;1820.40;;;690.05;;
75156;SDS011;63736;50.076;8.198;2023-05-10T11:47:57;1817.50;;;689.60;;
75156;SDS011;63736;50.076;8.198;2023-05-10T11:50:22;1819.57;;;686.13;;
75156;SDS011;63736;50.076;8.198;2023-05-10T11:52:54;1816.37;;;678.33;;
75156;SDS011;63736;50.076;8.198;2023-05-10T11:55:21;1786.20;;;628.67;;
75156;SDS011;63736;50.076;8.198;2023-05-10T11:57:46;1767.83;;;609.03;;
75156;SDS011;63736;50.076;8.198;2023-05-10T12:00:16;1786.03;;;614.85;;
75156;SDS011;63736;50.076;8.198;2023-05-10T12:02:41;1784.00;;;614.93;;
75156;SDS011;63736;50.076;8.198;2023-05-10T12:05:07;1769.77;;;602.03;;
75156;SDS011;63736;50.076;8.198;2023-05-10T12:07:33;1777.82;;;607.50;;
75156;SDS011;63736;50.076;8.198;2023-05-10T12:12:43;1774.00;;;603.38;;
75156;SDS011;63736;50.076;8.198;2023-05-10T12:15:20;1767.63;;;604.47;;
75156;SDS011;63736;50.076;8.198;2023-05-10T12:17:47;1764.40;;;606.55;;
75156;SDS011;63736;50.076;8.198;2023-05-10T12:20:13;1755.43;;;601.67;;
75156;SDS011;63736;50.076;8.198;2023-05-10T12:22:39;1749.43;;;600.10;;
75156;SDS011;63736;50.076;8.198;2023-05-10T12:25:05;1745.82;;;597.63;;
75156;SDS011;63736;50.076;8.198;2023-05-10T12:27:32;1743.90;;;601.03;;
75156;SDS011;63736;50.076;8.198;2023-05-10T12:29:59;1735.57;;;596.37;;
75156;SDS011;63736;50.076;8.198;2023-05-10T12:32:36;1731.43;;;599.30;;
75156;SDS011;63736;50.076;8.198;2023-05-10T12:35:03;1718.55;;;587.75;;
75156;SDS011;63736;50.076;8.198;2023-05-10T12:37:28;1726.90;;;595.10;;
75156;SDS011;63736;50.076;8.198;2023-05-10T12:39:54;1717.73;;;591.67;;
75156;SDS011;63736;50.076;8.198;2023-05-10T12:42:19;1711.27;;;588.17;;
75156;SDS011;63736;50.076;8.198;2023-05-10T12:44:45;1716.87;;;587.33;;
75156;SDS011;63736;50.076;8.198;2023-05-10T12:47:10;1714.10;;;588.90;;
75156;SDS011;63736;50.076;8.198;2023-05-10T12:49:35;1716.00;;;592.63;;
75156;SDS011;63736;50.076;8.198;2023-05-10T12:52:01;1711.33;;;589.47;;
75156;SDS011;63736;50.076;8.198;2023-05-10T12:54:26;1706.07;;;587.97;;
75156;SDS011;63736;50.076;8.198;2023-05-10T12:56:52;1706.43;;;582.78;;
75156;SDS011;63736;50.076;8.198;2023-05-10T12:59:18;1703.47;;;586.70;;
75156;SDS011;63736;50.076;8.198;2023-05-10T13:01:43;1703.33;;;582.23;;
75156;SDS011;63736;50.076;8.198;2023-05-10T13:04:08;1707.07;;;585.73;;
75156;SDS011;63736;50.076;8.198;2023-05-10T13:06:33;1690.80;;;576.00;;
75156;SDS011;63736;50.076;8.198;2023-05-10T13:08:59;1699.32;;;583.85;;
75156;SDS011;63736;50.076;8.198;2023-05-10T13:11:25;1699.03;;;579.60;;
75156;SDS011;63736;50.076;8.198;2023-05-10T13:13:51;1707.82;;;584.20;;
75156;SDS011;63736;50.076;8.198;2023-05-10T13:16:16;1694.97;;;577.27;;
75156;SDS011;63736;50.076;8.198;2023-05-10T13:18:41;1703.57;;;580.03;;
75156;SDS011;63736;50.076;8.198;2023-05-10T13:21:07;1695.10;;;576.60;;
75156;SDS011;63736;50.076;8.198;2023-05-10T13:23:32;1696.25;;;580.75;;
75156;SDS011;63736;50.076;8.198;2023-05-10T13:25:58;1690.97;;;579.27;;
75156;SDS011;63736;50.076;8.198;2023-05-10T13:28:23;1682.27;;;573.53;;
75156;SDS011;63736;50.076;8.198;2023-05-10T13:30:50;1682.47;;;573.70;;
75156;SDS011;63736;50.076;8.198;2023-05-10T13:33:15;1673.83;;;565.17;;
75156;SDS011;63736;50.076;8.198;2023-05-10T13:35:41;1684.75;;;575.45;;
75156;SDS011;63736;50.076;8.198;2023-05-10T13:38:06;1680.53;;;571.50;;
75156;SDS011;63736;50.076;8.198;2023-05-10T13:40:32;1673.27;;;567.43;;
75156;SDS011;63736;50.076;8.198;2023-05-10T13:42:58;1677.93;;;568.45;;
75156;SDS011;63736;50.076;8.198;2023-05-10T13:45:23;1675.20;;;566.00;;
75156;SDS011;63736;50.076;8.198;2023-05-10T13:47:49;1665.60;;;561.37;;
75156;SDS011;63736;50.076;8.198;2023-05-10T13:50:14;1673.20;;;563.17;;
75156;SDS011;63736;50.076;8.198;2023-05-10T13:52:39;1667.70;;;562.77;;
75156;SDS011;63736;50.076;8.198;2023-05-10T13:55:05;1659.73;;;559.20;;
75156;SDS011;63736;50.076;8.198;2023-05-10T13:57:30;1661.80;;;561.50;;
75156;SDS011;63736;50.076;8.198;2023-05-10T13:59:56;1657.55;;;558.55;;
75156;SDS011;63736;50.076;8.198;2023-05-10T14:02:22;1660.17;;;562.00;;
75156;SDS011;63736;50.076;8.198;2023-05-10T14:04:47;1653.75;;;556.30;;
75156;SDS011;63736;50.076;8.198;2023-05-10T14:07:13;1649.03;;;555.80;;
75156;SDS011;63736;50.076;8.198;2023-05-10T14:09:38;1662.53;;;567.37;;
75156;SDS011;63736;50.076;8.198;2023-05-10T14:12:04;1652.47;;;556.00;;
75156;SDS011;63736;50.076;8.198;2023-05-10T14:14:29;1657.97;;;559.58;;